sensor_id;sensor_type;location;lat;lon;timestamp;P1;durP1;ratioP1;P2;durP2;ratioP2
60312;SDS011;46158;52.850;6.970;2023-04-25T00:00:50;6.35;;;2.33;;
60312;SDS011;46158;52.850;6.970;2023-04-25T00:03:17;6.28;;;2.10;;
60312;SDS011;46158;52.850;6.970;2023-04-25T00:05:43;4.82;;;2.15;;
60312;SDS011;46158;52.850;6.970;2023-04-25T00:08:10;6.30;;;2.30;;
60312;SDS011;46158;52.850;6.970;2023-04-25T00:10:36;6.68;;;2.20;;
60312;SDS011;46158;52.850;6.970;2023-04-25T00:13:01;6.13;;;2.20;;
60312;SDS011;46158;52.850;6.970;2023-04-25T00:15:27;6.22;;;2.20;;
60312;SDS011;46158;52.850;6.970;2023-04-25T00:17:55;8.30;;;2.50;;
60312;SDS011;46158;52.850;6.970;2023-04-25T00:20:22;9.40;;;2.20;;
60312;SDS011;46158;52.850;6.970;2023-04-25T00:22:48;7.75;;;2.33;;
60312;SDS011;46158;52.850;6.970;2023-04-25T00:25:14;7.43;;;2.20;;
60312;SDS011;46158;52.850;6.970;2023-04-25T00:27:40;8.30;;;2.38;;
60312;SDS011;46158;52.850;6.970;2023-04-25T00:30:07;6.13;;;2.10;;
60312;SDS011;46158;52.850;6.970;2023-04-25T00:32:33;10.15;;;2.60;;
60312;SDS011;46158;52.850;6.970;2023-04-25T00:34:58;8.25;;;2.30;;
60312;SDS011;46158;52.850;6.970;2023-04-25T00:37:24;8.38;;;2.30;;
60312;SDS011;46158;52.850;6.970;2023-04-25T00:39:50;10.55;;;2.30;;
60312;SDS011;46158;52.850;6.970;2023-04-25T00:42:18;6.85;;;2.00;;
60312;SDS011;46158;52.850;6.970;2023-04-25T00:44:44;7.22;;;2.15;;
60312;SDS011;46158;52.850;6.970;2023-04-25T00:47:10;5.68;;;2.13;;
60312;SDS011;46158;52.850;6.970;2023-04-25T00:49:36;8.43;;;2.30;;
60312;SDS011;46158;52.850;6.970;2023-04-25T00:52:02;7.22;;;2.40;;
60312;SDS011;46158;52.850;6.970;2023-04-25T00:54:28;6.90;;;1.90;;
60312;SDS011;46158;52.850;6.970;2023-04-25T00:56:55;7.22;;;2.13;;
60312;SDS011;46158;52.850;6.970;2023-04-25T00:59:20;6.10;;;2.20;;
60312;SDS011;46158;52.850;6.970;2023-04-25T01:01:46;7.10;;;2.30;;
60312;SDS011;46158;52.850;6.970;2023-04-25T01:04:12;6.07;;;2.00;;
60312;SDS011;46158;52.850;6.970;2023-04-25T01:06:38;7.90;;;2.35;;
60312;SDS011;46158;52.850;6.970;2023-04-25T01:09:04;7.03;;;2.30;;
60312;SDS011;46158;52.850;6.970;2023-04-25T01:11:30;7.95;;;2.17;;
60312;SDS011;46158;52.850;6.970;2023-04-25T01:13:56;7.85;;;2.33;;
60312;SDS011;46158;52.850;6.970;2023-04-25T01:16:22;8.98;;;2.78;;
60312;SDS011;46158;52.850;6.970;2023-04-25T01:18:49;7.72;;;2.28;;
60312;SDS011;46158;52.850;6.970;2023-04-25T01:21:16;6.53;;;2.30;;
60312;SDS011;46158;52.850;6.970;2023-04-25T01:23:42;8.35;;;2.35;;
60312;SDS011;46158;52.850;6.970;2023-04-25T01:26:08;8.75;;;2.30;;
60312;SDS011;46158;52.850;6.970;2023-04-25T01:28:35;8.88;;;2.30;;
60312;SDS011;46158;52.850;6.970;2023-04-25T01:31:01;10.93;;;2.55;;
60312;SDS011;46158;52.850;6.970;2023-04-25T01:33:27;9.38;;;2.30;;
60312;SDS011;46158;52.850;6.970;2023-04-25T01:35:52;9.15;;;2.40;;
60312;SDS011;46158;52.850;6.970;2023-04-25T01:38:18;4.60;;;2.35;;
60312;SDS011;46158;52.850;6.970;2023-04-25T01:40:44;7.07;;;2.35;;
60312;SDS011;46158;52.850;6.970;2023-04-25T01:43:12;6.03;;;2.10;;
60312;SDS011;46158;52.850;6.970;2023-04-25T01:45:39;7.13;;;2.30;;
60312;SDS011;46158;52.850;6.970;2023-04-25T01:48:07;6.72;;;2.20;;
60312;SDS011;46158;52.850;6.970;2023-04-25T01:50:33;9.63;;;2.30;;
60312;SDS011;46158;52.850;6.970;2023-04-25T01:52:59;8.40;;;2.42;;
60312;SDS011;46158;52.850;6.970;2023-04-25T01:55:25;4.88;;;2.00;;
60312;SDS011;46158;52.850;6.970;2023-04-25T01:57:51;7.45;;;2.05;;
60312;SDS011;46158;52.850;6.970;2023-04-25T02:00:16;6.47;;;2.17;;
60312;SDS011;46158;52.850;6.970;2023-04-25T02:02:42;5.30;;;1.90;;
60312;SDS011;46158;52.850;6.970;2023-04-25T02:05:08;6.45;;;2.10;;
60312;SDS011;46158;52.850;6.970;2023-04-25T02:07:34;9.20;;;2.30;;
60312;SDS011;46158;52.850;6.970;2023-04-25T02:09:59;7.55;;;2.40;;
60312;SDS011;46158;52.850;6.970;2023-04-25T02:12:25;8.00;;;2.38;;
60312;SDS011;46158;52.850;6.970;2023-04-25T02:14:52;7.05;;;2.53;;
60312;SDS011;46158;52.850;6.970;2023-04-25T02:17:17;8.20;;;2.60;;
60312;SDS011;46158;52.850;6.970;2023-04-25T02:19:43;10.82;;;2.80;;
60312;SDS011;46158;52.850;6.970;2023-04-25T02:22:09;11.55;;;2.70;;
60312;SDS011;46158;52.850;6.970;2023-04-25T02:24:35;9.23;;;2.78;;
60312;SDS011;46158;52.850;6.970;2023-04-25T02:27:01;8.07;;;2.50;;
60312;SDS011;46158;52.850;6.970;2023-04-25T02:29:27;10.07;;;2.70;;
60312;SDS011;46158;52.850;6.970;2023-04-25T02:31:52;8.98;;;2.60;;
60312;SDS011;46158;52.850;6.970;2023-04-25T02:34:18;11.20;;;2.78;;
60312;SDS011;46158;52.850;6.970;2023-04-25T02:36:44;9.95;;;2.75;;
60312;SDS011;46158;52.850;6.970;2023-04-25T02:39:10;10.05;;;2.70;;
60312;SDS011;46158;52.850;6.970;2023-04-25T02:41:35;9.35;;;2.63;;
60312;SDS011;46158;52.850;6.970;2023-04-25T02:44:01;9.90;;;2.47;;
60312;SDS011;46158;52.850;6.970;2023-04-25T02:46:27;11.55;;;2.70;;
60312;SDS011;46158;52.850;6.970;2023-04-25T02:48:52;10.40;;;2.67;;
60312;SDS011;46158;52.850;6.970;2023-04-25T02:51:18;7.85;;;2.65;;
60312;SDS011;46158;52.850;6.970;2023-04-25T02:53:44;9.52;;;2.78;;
60312;SDS011;46158;52.850;6.970;2023-04-25T02:56:10;9.73;;;2.92;;
60312;SDS011;46158;52.850;6.970;2023-04-25T02:58:35;10.23;;;2.50;;
60312;SDS011;46158;52.850;6.970;2023-04-25T03:01:01;9.65;;;2.70;;
60312;SDS011;46158;52.850;6.970;2023-04-25T03:03:27;10.05;;;2.63;;
60312;SDS011;46158;52.850;6.970;2023-04-25T03:05:52;11.70;;;2.80;;
60312;SDS011;46158;52.850;6.970;2023-04-25T03:08:18;11.02;;;2.78;;
60312;SDS011;46158;52.850;6.970;2023-04-25T03:10:44;10.68;;;2.70;;
60312;SDS011;46158;52.850;6.970;2023-04-25T03:13:10;9.27;;;2.47;;
60312;SDS011;46158;52.850;6.970;2023-04-25T03:15:35;11.45;;;2.80;;
60312;SDS011;46158;52.850;6.970;2023-04-25T03:18:04;9.13;;;2.40;;
60312;SDS011;46158;52.850;6.970;2023-04-25T03:20:30;8.15;;;2.70;;
60312;SDS011;46158;52.850;6.970;2023-04-25T03:22:55;11.20;;;2.67;;
60312;SDS011;46158;52.850;6.970;2023-04-25T03:25:21;9.05;;;2.58;;
60312;SDS011;46158;52.850;6.970;2023-04-25T03:27:47;8.07;;;2.42;;
60312;SDS011;46158;52.850;6.970;2023-04-25T03:30:13;8.20;;;2.67;;
60312;SDS011;46158;52.850;6.970;2023-04-25T03:32:39;10.43;;;2.70;;
60312;SDS011;46158;52.850;6.970;2023-04-25T03:35:05;12.15;;;2.75;;
60312;SDS011;46158;52.850;6.970;2023-04-25T03:37:30;10.98;;;2.50;;
60312;SDS011;46158;52.850;6.970;2023-04-25T03:39:56;7.53;;;2.63;;
60312;SDS011;46158;52.850;6.970;2023-04-25T03:42:22;6.85;;;2.47;;
60312;SDS011;46158;52.850;6.970;2023-04-25T03:44:48;8.05;;;2.42;;
60312;SDS011;46158;52.850;6.970;2023-04-25T03:47:14;11.63;;;2.67;;
60312;SDS011;46158;52.850;6.970;2023-04-25T03:49:40;8.43;;;2.83;;
60312;SDS011;46158;52.850;6.970;2023-04-25T03:52:06;10.13;;;2.83;;
60312;SDS011;46158;52.850;6.970;2023-04-25T03:54:32;8.05;;;2.63;;
60312;SDS011;46158;52.850;6.970;2023-04-25T03:56:58;8.35;;;2.63;;
60312;SDS011;46158;52.850;6.970;2023-04-25T03:59:23;9.32;;;2.78;;
60312;SDS011;46158;52.850;6.970;2023-04-25T04:01:50;9.70;;;2.70;;
60312;SDS011;46158;52.850;6.970;2023-04-25T04:04:15;11.18;;;2.60;;
60312;SDS011;46158;52.850;6.970;2023-04-25T04:06:41;10.55;;;2.60;;
60312;SDS011;46158;52.850;6.970;2023-04-25T04:09:07;9.48;;;2.78;;
60312;SDS011;46158;52.850;6.970;2023-04-25T04:11:36;9.20;;;2.63;;
60312;SDS011;46158;52.850;6.970;2023-04-25T04:14:04;9.50;;;2.70;;
60312;SDS011;46158;52.850;6.970;2023-04-25T04:16:31;11.13;;;2.83;;
60312;SDS011;46158;52.850;6.970;2023-04-25T04:18:56;9.55;;;2.55;;
60312;SDS011;46158;52.850;6.970;2023-04-25T04:21:22;12.45;;;2.95;;
60312;SDS011;46158;52.850;6.970;2023-04-25T04:23:48;10.30;;;2.70;;
60312;SDS011;46158;52.850;6.970;2023-04-25T04:26:14;8.20;;;2.60;;
60312;SDS011;46158;52.850;6.970;2023-04-25T04:28:41;7.95;;;2.53;;
60312;SDS011;46158;52.850;6.970;2023-04-25T04:31:09;11.32;;;2.80;;
60312;SDS011;46158;52.850;6.970;2023-04-25T04:33:35;11.00;;;2.60;;
60312;SDS011;46158;52.850;6.970;2023-04-25T04:36:02;8.63;;;2.28;;
60312;SDS011;46158;52.850;6.970;2023-04-25T04:38:29;5.85;;;2.25;;
60312;SDS011;46158;52.850;6.970;2023-04-25T04:40:55;8.48;;;2.40;;
60312;SDS011;46158;52.850;6.970;2023-04-25T04:43:21;6.68;;;2.33;;
60312;SDS011;46158;52.850;6.970;2023-04-25T04:45:48;9.73;;;2.63;;
60312;SDS011;46158;52.850;6.970;2023-04-25T04:48:15;10.43;;;2.92;;
60312;SDS011;46158;52.850;6.970;2023-04-25T04:50:44;7.00;;;2.40;;
60312;SDS011;46158;52.850;6.970;2023-04-25T04:53:12;11.18;;;2.70;;
60312;SDS011;46158;52.850;6.970;2023-04-25T04:55:38;7.47;;;2.42;;
60312;SDS011;46158;52.850;6.970;2023-04-25T04:58:06;6.15;;;2.17;;
60312;SDS011;46158;52.850;6.970;2023-04-25T05:00:32;9.68;;;2.70;;
60312;SDS011;46158;52.850;6.970;2023-04-25T05:02:58;13.05;;;2.70;;
60312;SDS011;46158;52.850;6.970;2023-04-25T05:05:23;7.50;;;2.40;;
60312;SDS011;46158;52.850;6.970;2023-04-25T05:07:49;8.38;;;2.47;;
60312;SDS011;46158;52.850;6.970;2023-04-25T05:10:16;8.70;;;2.47;;
60312;SDS011;46158;52.850;6.970;2023-04-25T05:12:42;8.77;;;2.35;;
60312;SDS011;46158;52.850;6.970;2023-04-25T05:15:08;10.32;;;2.63;;
60312;SDS011;46158;52.850;6.970;2023-04-25T05:17:35;10.40;;;2.50;;
60312;SDS011;46158;52.850;6.970;2023-04-25T05:20:01;6.53;;;2.28;;
60312;SDS011;46158;52.850;6.970;2023-04-25T05:22:27;10.55;;;2.80;;
60312;SDS011;46158;52.850;6.970;2023-04-25T05:24:53;8.27;;;2.42;;
60312;SDS011;46158;52.850;6.970;2023-04-25T05:27:19;11.45;;;2.60;;
60312;SDS011;46158;52.850;6.970;2023-04-25T05:29:45;10.35;;;2.45;;
60312;SDS011;46158;52.850;6.970;2023-04-25T05:32:11;6.65;;;2.22;;
60312;SDS011;46158;52.850;6.970;2023-04-25T05:34:36;10.48;;;2.80;;
60312;SDS011;46158;52.850;6.970;2023-04-25T05:37:02;9.85;;;2.53;;
60312;SDS011;46158;52.850;6.970;2023-04-25T05:39:28;8.25;;;2.70;;
60312;SDS011;46158;52.850;6.970;2023-04-25T05:41:54;7.10;;;2.30;;
60312;SDS011;46158;52.850;6.970;2023-04-25T05:44:20;6.70;;;2.28;;
60312;SDS011;46158;52.850;6.970;2023-04-25T05:46:46;10.18;;;2.60;;
60312;SDS011;46158;52.850;6.970;2023-04-25T05:49:12;6.95;;;2.40;;
60312;SDS011;46158;52.850;6.970;2023-04-25T05:51:38;9.15;;;2.30;;
60312;SDS011;46158;52.850;6.970;2023-04-25T05:54:03;8.32;;;2.47;;
60312;SDS011;46158;52.850;6.970;2023-04-25T05:56:29;6.88;;;2.40;;
60312;SDS011;46158;52.850;6.970;2023-04-25T05:58:55;6.93;;;2.25;;
60312;SDS011;46158;52.850;6.970;2023-04-25T06:01:21;8.38;;;2.40;;
60312;SDS011;46158;52.850;6.970;2023-04-25T06:03:48;11.45;;;2.70;;
60312;SDS011;46158;52.850;6.970;2023-04-25T06:06:14;9.60;;;2.55;;
60312;SDS011;46158;52.850;6.970;2023-04-25T06:08:40;7.32;;;2.13;;
60312;SDS011;46158;52.850;6.970;2023-04-25T06:11:06;7.50;;;2.28;;
60312;SDS011;46158;52.850;6.970;2023-04-25T06:13:32;11.65;;;2.53;;
60312;SDS011;46158;52.850;6.970;2023-04-25T06:15:58;6.47;;;2.40;;
60312;SDS011;46158;52.850;6.970;2023-04-25T06:18:24;6.90;;;2.40;;
60312;SDS011;46158;52.850;6.970;2023-04-25T06:20:50;7.70;;;2.40;;
60312;SDS011;46158;52.850;6.970;2023-04-25T06:23:15;6.57;;;2.40;;
60312;SDS011;46158;52.850;6.970;2023-04-25T06:25:41;8.32;;;2.53;;
60312;SDS011;46158;52.850;6.970;2023-04-25T06:28:07;6.72;;;2.25;;
60312;SDS011;46158;52.850;6.970;2023-04-25T06:30:33;8.25;;;2.20;;
60312;SDS011;46158;52.850;6.970;2023-04-25T06:32:58;9.52;;;2.40;;
60312;SDS011;46158;52.850;6.970;2023-04-25T06:35:24;6.43;;;2.25;;
60312;SDS011;46158;52.850;6.970;2023-04-25T06:37:50;8.32;;;2.50;;
60312;SDS011;46158;52.850;6.970;2023-04-25T06:40:15;9.32;;;2.20;;
60312;SDS011;46158;52.850;6.970;2023-04-25T06:42:42;8.68;;;2.20;;
60312;SDS011;46158;52.850;6.970;2023-04-25T06:45:08;8.27;;;2.17;;
60312;SDS011;46158;52.850;6.970;2023-04-25T06:47:34;6.20;;;2.15;;
60312;SDS011;46158;52.850;6.970;2023-04-25T06:50:00;8.63;;;2.20;;
60312;SDS011;46158;52.850;6.970;2023-04-25T06:52:25;7.55;;;2.10;;
60312;SDS011;46158;52.850;6.970;2023-04-25T06:54:51;6.53;;;2.38;;
60312;SDS011;46158;52.850;6.970;2023-04-25T06:57:16;8.93;;;2.17;;
60312;SDS011;46158;52.850;6.970;2023-04-25T06:59:42;11.63;;;2.40;;
60312;SDS011;46158;52.850;6.970;2023-04-25T07:02:08;7.05;;;2.40;;
60312;SDS011;46158;52.850;6.970;2023-04-25T07:04:34;8.70;;;2.38;;
60312;SDS011;46158;52.850;6.970;2023-04-25T07:06:59;8.18;;;2.38;;
60312;SDS011;46158;52.850;6.970;2023-04-25T07:09:27;9.07;;;2.30;;
60312;SDS011;46158;52.850;6.970;2023-04-25T07:11:53;8.93;;;2.20;;
60312;SDS011;46158;52.850;6.970;2023-04-25T07:14:19;6.07;;;2.08;;
60312;SDS011;46158;52.850;6.970;2023-04-25T07:16:45;8.20;;;2.50;;
60312;SDS011;46158;52.850;6.970;2023-04-25T07:19:10;7.47;;;2.15;;
60312;SDS011;46158;52.850;6.970;2023-04-25T07:21:36;8.10;;;2.30;;
60312;SDS011;46158;52.850;6.970;2023-04-25T07:24:02;9.98;;;2.50;;
60312;SDS011;46158;52.850;6.970;2023-04-25T07:26:28;6.65;;;2.30;;
60312;SDS011;46158;52.850;6.970;2023-04-25T07:28:53;6.18;;;2.20;;
60312;SDS011;46158;52.850;6.970;2023-04-25T07:31:19;6.97;;;2.00;;
60312;SDS011;46158;52.850;6.970;2023-04-25T07:33:46;8.60;;;2.20;;
60312;SDS011;46158;52.850;6.970;2023-04-25T07:36:12;9.10;;;2.20;;
60312;SDS011;46158;52.850;6.970;2023-04-25T07:38:38;7.13;;;2.42;;
60312;SDS011;46158;52.850;6.970;2023-04-25T07:41:04;6.55;;;2.10;;
60312;SDS011;46158;52.850;6.970;2023-04-25T07:43:30;12.38;;;2.30;;
60312;SDS011;46158;52.850;6.970;2023-04-25T07:45:56;10.02;;;2.38;;
60312;SDS011;46158;52.850;6.970;2023-04-25T07:48:21;10.00;;;2.20;;
60312;SDS011;46158;52.850;6.970;2023-04-25T07:50:47;9.63;;;2.20;;
60312;SDS011;46158;52.850;6.970;2023-04-25T07:53:13;8.68;;;2.28;;
60312;SDS011;46158;52.850;6.970;2023-04-25T07:55:39;9.13;;;2.30;;
60312;SDS011;46158;52.850;6.970;2023-04-25T07:58:06;7.55;;;2.10;;
60312;SDS011;46158;52.850;6.970;2023-04-25T08:00:32;6.35;;;2.45;;
60312;SDS011;46158;52.850;6.970;2023-04-25T08:02:58;6.65;;;2.20;;
60312;SDS011;46158;52.850;6.970;2023-04-25T08:05:23;8.15;;;2.30;;
60312;SDS011;46158;52.850;6.970;2023-04-25T08:07:49;6.60;;;2.20;;
60312;SDS011;46158;52.850;6.970;2023-04-25T08:10:15;7.78;;;2.10;;
60312;SDS011;46158;52.850;6.970;2023-04-25T08:12:41;9.60;;;2.40;;
60312;SDS011;46158;52.850;6.970;2023-04-25T08:15:07;8.40;;;2.30;;
60312;SDS011;46158;52.850;6.970;2023-04-25T08:17:33;8.68;;;2.10;;
60312;SDS011;46158;52.850;6.970;2023-04-25T08:19:59;9.35;;;2.45;;
60312;SDS011;46158;52.850;6.970;2023-04-25T08:22:25;7.07;;;2.20;;
60312;SDS011;46158;52.850;6.970;2023-04-25T08:24:50;9.35;;;2.28;;
60312;SDS011;46158;52.850;6.970;2023-04-25T08:27:19;10.27;;;2.58;;
60312;SDS011;46158;52.850;6.970;2023-04-25T08:29:45;6.70;;;2.20;;
60312;SDS011;46158;52.850;6.970;2023-04-25T08:32:11;8.90;;;2.30;;
60312;SDS011;46158;52.850;6.970;2023-04-25T08:34:37;8.23;;;2.20;;
60312;SDS011;46158;52.850;6.970;2023-04-25T08:37:04;5.88;;;2.20;;
60312;SDS011;46158;52.850;6.970;2023-04-25T08:39:30;8.02;;;2.10;;
60312;SDS011;46158;52.850;6.970;2023-04-25T08:41:56;6.22;;;2.00;;
60312;SDS011;46158;52.850;6.970;2023-04-25T08:44:22;5.93;;;2.00;;
60312;SDS011;46158;52.850;6.970;2023-04-25T08:46:49;9.73;;;2.40;;
60312;SDS011;46158;52.850;6.970;2023-04-25T08:49:17;6.82;;;1.95;;
60312;SDS011;46158;52.850;6.970;2023-04-25T08:51:44;5.85;;;1.95;;
60312;SDS011;46158;52.850;6.970;2023-04-25T08:54:12;9.27;;;2.25;;
60312;SDS011;46158;52.850;6.970;2023-04-25T08:56:44;6.22;;;2.00;;
60312;SDS011;46158;52.850;6.970;2023-04-25T08:59:11;9.02;;;1.90;;
60312;SDS011;46158;52.850;6.970;2023-04-25T09:01:37;9.00;;;2.28;;
60312;SDS011;46158;52.850;6.970;2023-04-25T09:04:03;7.10;;;2.08;;
60312;SDS011;46158;52.850;6.970;2023-04-25T09:06:29;6.43;;;1.90;;
60312;SDS011;46158;52.850;6.970;2023-04-25T09:09:00;5.53;;;2.00;;
60312;SDS011;46158;52.850;6.970;2023-04-25T09:11:29;5.13;;;1.90;;
60312;SDS011;46158;52.850;6.970;2023-04-25T09:14:09;6.18;;;2.00;;
60312;SDS011;46158;52.850;6.970;2023-04-25T09:19:21;3.25;;;1.80;;
60312;SDS011;46158;52.850;6.970;2023-04-25T09:21:53;5.18;;;1.92;;
60312;SDS011;46158;52.850;6.970;2023-04-25T09:24:33;5.50;;;2.05;;
60312;SDS011;46158;52.850;6.970;2023-04-25T09:27:03;7.57;;;1.95;;
60312;SDS011;46158;52.850;6.970;2023-04-25T09:29:36;9.30;;;2.17;;
60312;SDS011;46158;52.850;6.970;2023-04-25T09:32:14;6.40;;;2.00;;
60312;SDS011;46158;52.850;6.970;2023-04-25T09:34:41;6.18;;;1.98;;
60312;SDS011;46158;52.850;6.970;2023-04-25T09:37:09;8.45;;;2.05;;
60312;SDS011;46158;52.850;6.970;2023-04-25T09:39:36;4.70;;;1.83;;
60312;SDS011;46158;52.850;6.970;2023-04-25T09:42:05;9.77;;;2.10;;
60312;SDS011;46158;52.850;6.970;2023-04-25T09:44:31;5.68;;;1.83;;
60312;SDS011;46158;52.850;6.970;2023-04-25T09:46:57;8.55;;;2.08;;
60312;SDS011;46158;52.850;6.970;2023-04-25T09:52:14;5.47;;;1.73;;
60312;SDS011;46158;52.850;6.970;2023-04-25T09:54:45;4.53;;;1.80;;
60312;SDS011;46158;52.850;6.970;2023-04-25T09:57:12;9.18;;;2.22;;
60312;SDS011;46158;52.850;6.970;2023-04-25T10:02:15;6.13;;;1.80;;
60312;SDS011;46158;52.850;6.970;2023-04-25T10:07:16;8.60;;;1.90;;
60312;SDS011;46158;52.850;6.970;2023-04-25T10:09:44;4.68;;;1.70;;
60312;SDS011;46158;52.850;6.970;2023-04-25T10:12:13;7.70;;;1.92;;
60312;SDS011;46158;52.850;6.970;2023-04-25T10:14:38;4.45;;;2.00;;
60312;SDS011;46158;52.850;6.970;2023-04-25T10:17:05;8.05;;;2.08;;
60312;SDS011;46158;52.850;6.970;2023-04-25T10:19:32;3.75;;;1.80;;
60312;SDS011;46158;52.850;6.970;2023-04-25T10:22:02;5.18;;;1.92;;
60312;SDS011;46158;52.850;6.970;2023-04-25T10:24:41;6.53;;;1.88;;
60312;SDS011;46158;52.850;6.970;2023-04-25T10:27:07;6.50;;;2.00;;
60312;SDS011;46158;52.850;6.970;2023-04-25T10:29:34;5.70;;;1.70;;
60312;SDS011;46158;52.850;6.970;2023-04-25T10:32:00;8.68;;;2.00;;
60312;SDS011;46158;52.850;6.970;2023-04-25T10:34:40;8.05;;;1.90;;
60312;SDS011;46158;52.850;6.970;2023-04-25T10:37:16;7.40;;;2.05;;
60312;SDS011;46158;52.850;6.970;2023-04-25T10:39:43;7.00;;;1.85;;
60312;SDS011;46158;52.850;6.970;2023-04-25T10:42:10;5.75;;;1.80;;
60312;SDS011;46158;52.850;6.970;2023-04-25T10:44:37;6.35;;;1.88;;
60312;SDS011;46158;52.850;6.970;2023-04-25T10:47:07;4.25;;;1.85;;
60312;SDS011;46158;52.850;6.970;2023-04-25T10:49:38;4.60;;;1.70;;
60312;SDS011;46158;52.850;6.970;2023-04-25T10:54:49;5.57;;;1.70;;
60312;SDS011;46158;52.850;6.970;2023-04-25T10:57:29;6.93;;;1.90;;
60312;SDS011;46158;52.850;6.970;2023-04-25T11:00:05;5.60;;;1.92;;
60312;SDS011;46158;52.850;6.970;2023-04-25T11:02:47;4.70;;;1.58;;
60312;SDS011;46158;52.850;6.970;2023-04-25T11:05:26;5.90;;;1.80;;
60312;SDS011;46158;52.850;6.970;2023-04-25T11:08:01;5.22;;;1.63;;
60312;SDS011;46158;52.850;6.970;2023-04-25T11:10:31;6.53;;;1.88;;
60312;SDS011;46158;52.850;6.970;2023-04-25T11:13:00;4.45;;;1.80;;
60312;SDS011;46158;52.850;6.970;2023-04-25T11:15:27;5.43;;;1.80;;
60312;SDS011;46158;52.850;6.970;2023-04-25T11:17:54;3.70;;;1.70;;
60312;SDS011;46158;52.850;6.970;2023-04-25T11:20:20;7.18;;;1.85;;
60312;SDS011;46158;52.850;6.970;2023-04-25T11:22:47;6.57;;;2.00;;
60312;SDS011;46158;52.850;6.970;2023-04-25T11:25:14;5.50;;;1.85;;
60312;SDS011;46158;52.850;6.970;2023-04-25T11:27:53;7.57;;;1.88;;
60312;SDS011;46158;52.850;6.970;2023-04-25T11:30:24;6.60;;;1.80;;
60312;SDS011;46158;52.850;6.970;2023-04-25T11:32:51;6.82;;;1.80;;
60312;SDS011;46158;52.850;6.970;2023-04-25T11:35:20;5.85;;;2.00;;
60312;SDS011;46158;52.850;6.970;2023-04-25T11:37:47;4.18;;;1.65;;
60312;SDS011;46158;52.850;6.970;2023-04-25T11:40:14;6.90;;;1.70;;
60312;SDS011;46158;52.850;6.970;2023-04-25T11:42:44;4.45;;;1.77;;
60312;SDS011;46158;52.850;6.970;2023-04-25T11:45:11;3.55;;;1.67;;
60312;SDS011;46158;52.850;6.970;2023-04-25T11:47:37;3.75;;;1.70;;
60312;SDS011;46158;52.850;6.970;2023-04-25T11:50:03;7.03;;;1.90;;
60312;SDS011;46158;52.850;6.970;2023-04-25T11:52:37;3.42;;;1.67;;
60312;SDS011;46158;52.850;6.970;2023-04-25T11:55:05;6.00;;;2.03;;
60312;SDS011;46158;52.850;6.970;2023-04-25T11:57:42;8.50;;;1.90;;
60312;SDS011;46158;52.850;6.970;2023-04-25T12:00:30;6.55;;;1.65;;
60312;SDS011;46158;52.850;6.970;2023-04-25T12:02:55;7.72;;;1.92;;
60312;SDS011;46158;52.850;6.970;2023-04-25T12:05:27;2.63;;;1.63;;
60312;SDS011;46158;52.850;6.970;2023-04-25T12:07:54;4.88;;;1.77;;
60312;SDS011;46158;52.850;6.970;2023-04-25T12:10:20;4.10;;;1.80;;
60312;SDS011;46158;52.850;6.970;2023-04-25T12:12:47;8.20;;;1.90;;
60312;SDS011;46158;52.850;6.970;2023-04-25T12:15:25;3.85;;;1.60;;
60312;SDS011;46158;52.850;6.970;2023-04-25T12:17:51;7.03;;;1.90;;
60312;SDS011;46158;52.850;6.970;2023-04-25T12:20:20;4.18;;;1.50;;
60312;SDS011;46158;52.850;6.970;2023-04-25T12:28:14;3.55;;;1.60;;
60312;SDS011;46158;52.850;6.970;2023-04-25T12:33:24;6.22;;;1.77;;
60312;SDS011;46158;52.850;6.970;2023-04-25T12:35:51;7.90;;;1.83;;
60312;SDS011;46158;52.850;6.970;2023-04-25T12:38:37;5.43;;;1.65;;
60312;SDS011;46158;52.850;6.970;2023-04-25T12:41:04;5.53;;;2.00;;
60312;SDS011;46158;52.850;6.970;2023-04-25T12:43:31;2.58;;;1.65;;
60312;SDS011;46158;52.850;6.970;2023-04-25T12:46:00;6.20;;;1.70;;
60312;SDS011;46158;52.850;6.970;2023-04-25T12:48:26;5.55;;;1.80;;
60312;SDS011;46158;52.850;6.970;2023-04-25T12:50:52;5.05;;;1.83;;
60312;SDS011;46158;52.850;6.970;2023-04-25T12:53:18;4.68;;;1.70;;
60312;SDS011;46158;52.850;6.970;2023-04-25T12:55:45;4.93;;;1.60;;
60312;SDS011;46158;52.850;6.970;2023-04-25T12:58:14;4.53;;;1.77;;
60312;SDS011;46158;52.850;6.970;2023-04-25T13:00:41;5.97;;;1.90;;
60312;SDS011;46158;52.850;6.970;2023-04-25T13:03:08;6.15;;;1.80;;
60312;SDS011;46158;52.850;6.970;2023-04-25T13:05:34;6.65;;;1.73;;
60312;SDS011;46158;52.850;6.970;2023-04-25T13:08:01;3.88;;;1.70;;
60312;SDS011;46158;52.850;6.970;2023-04-25T13:10:26;6.18;;;1.90;;
60312;SDS011;46158;52.850;6.970;2023-04-25T13:12:52;4.40;;;1.90;;
60312;SDS011;46158;52.850;6.970;2023-04-25T13:15:18;7.18;;;1.90;;
60312;SDS011;46158;52.850;6.970;2023-04-25T13:17:43;7.00;;;1.67;;
60312;SDS011;46158;52.850;6.970;2023-04-25T13:20:09;6.60;;;2.00;;
60312;SDS011;46158;52.850;6.970;2023-04-25T13:22:36;5.22;;;1.90;;
60312;SDS011;46158;52.850;6.970;2023-04-25T13:25:06;3.83;;;1.80;;
60312;SDS011;46158;52.850;6.970;2023-04-25T13:27:36;6.72;;;1.67;;
60312;SDS011;46158;52.850;6.970;2023-04-25T13:30:03;3.38;;;1.52;;
60312;SDS011;46158;52.850;6.970;2023-04-25T13:32:36;5.15;;;2.00;;
60312;SDS011;46158;52.850;6.970;2023-04-25T13:35:03;8.75;;;2.08;;
60312;SDS011;46158;52.850;6.970;2023-04-25T13:37:36;4.80;;;1.98;;
60312;SDS011;46158;52.850;6.970;2023-04-25T13:40:04;4.57;;;1.60;;
60312;SDS011;46158;52.850;6.970;2023-04-25T13:42:35;5.70;;;1.75;;
60312;SDS011;46158;52.850;6.970;2023-04-25T13:45:01;5.28;;;1.80;;
60312;SDS011;46158;52.850;6.970;2023-04-25T13:47:30;5.55;;;1.80;;
60312;SDS011;46158;52.850;6.970;2023-04-25T13:49:56;3.72;;;1.50;;
60312;SDS011;46158;52.850;6.970;2023-04-25T13:52:22;4.63;;;1.90;;
60312;SDS011;46158;52.850;6.970;2023-04-25T13:54:49;6.18;;;1.90;;
60312;SDS011;46158;52.850;6.970;2023-04-25T13:57:16;5.63;;;2.00;;
60312;SDS011;46158;52.850;6.970;2023-04-25T13:59:42;4.13;;;1.67;;
60312;SDS011;46158;52.850;6.970;2023-04-25T14:02:08;6.75;;;1.90;;
60312;SDS011;46158;52.850;6.970;2023-04-25T14:04:34;4.35;;;1.70;;
60312;SDS011;46158;52.850;6.970;2023-04-25T14:07:00;4.28;;;1.88;;
60312;SDS011;46158;52.850;6.970;2023-04-25T14:09:27;5.47;;;1.70;;
60312;SDS011;46158;52.850;6.970;2023-04-25T14:11:54;4.82;;;1.88;;
60312;SDS011;46158;52.850;6.970;2023-04-25T14:14:21;6.00;;;1.65;;
60312;SDS011;46158;52.850;6.970;2023-04-25T14:16:47;4.78;;;1.75;;
60312;SDS011;46158;52.850;6.970;2023-04-25T14:19:22;5.88;;;2.00;;
60312;SDS011;46158;52.850;6.970;2023-04-25T14:21:49;5.43;;;1.90;;
60312;SDS011;46158;52.850;6.970;2023-04-25T14:24:15;3.42;;;1.85;;
60312;SDS011;46158;52.850;6.970;2023-04-25T14:26:40;8.80;;;2.00;;
60312;SDS011;46158;52.850;6.970;2023-04-25T14:29:07;6.03;;;1.90;;
60312;SDS011;46158;52.850;6.970;2023-04-25T14:31:33;6.00;;;1.90;;
60312;SDS011;46158;52.850;6.970;2023-04-25T14:34:00;5.55;;;1.70;;
60312;SDS011;46158;52.850;6.970;2023-04-25T14:36:30;3.85;;;1.70;;
60312;SDS011;46158;52.850;6.970;2023-04-25T14:38:56;7.53;;;1.75;;
60312;SDS011;46158;52.850;6.970;2023-04-25T14:41:22;5.07;;;1.70;;
60312;SDS011;46158;52.850;6.970;2023-04-25T14:43:49;4.90;;;1.80;;
60312;SDS011;46158;52.850;6.970;2023-04-25T14:46:16;4.82;;;1.70;;
60312;SDS011;46158;52.850;6.970;2023-04-25T14:48:42;5.72;;;1.85;;
60312;SDS011;46158;52.850;6.970;2023-04-25T14:51:08;6.47;;;1.88;;
60312;SDS011;46158;52.850;6.970;2023-04-25T14:53:35;6.45;;;1.73;;
60312;SDS011;46158;52.850;6.970;2023-04-25T14:56:01;4.55;;;2.00;;
60312;SDS011;46158;52.850;6.970;2023-04-25T14:58:27;3.83;;;1.67;;
60312;SDS011;46158;52.850;6.970;2023-04-25T15:00:54;4.88;;;1.80;;
60312;SDS011;46158;52.850;6.970;2023-04-25T15:03:21;4.00;;;1.60;;
60312;SDS011;46158;52.850;6.970;2023-04-25T15:05:47;3.05;;;1.40;;